This is the latest recevied weather packets stored in our database for station/object KSGT. If no packets are shown the sender has not sent any weather packets the latest 10 day(s).
| Time | Temp. | Humidity | Pressure | Rain* | Wind** | Luminosity | Snow |
|---|---|---|---|---|---|---|---|
| 1787793815 | 23.89° C | 100% | 1014.6 hPa | - | - | - | - |
| 1787793214 | 23.89° C | 100% | 1014.6 hPa | - | - | - | - |
| 1787792617 | 23.89° C | 100% | 1014.6 hPa | - | - | - | - |
| 1787792019 | 23.89° C | 94% | 1014.9 hPa | - | - | - | - |
| 1787791416 | 23.89° C | 94% | 1014.9 hPa | - | - | - | - |
| 1787790819 | 25.56° C | 78% | 1013.2 hPa | - | - | - | - |
| 1787790217 | 25.56° C | 78% | 1013.2 hPa | - | - | - | - |
| 1787789619 | 25.56° C | 78% | 1013.2 hPa | - | - | - | - |
| 1787789035 | 25.56° C | 78% | 1013.2 hPa | - | - | - | - |
| 1787788416 | 28.89° C | 74% | 1012.9 hPa | - | - | - | - |
| 1787787819 | 28.89° C | 74% | 1012.9 hPa | - | - | - | - |
| 1787787220 | 28.89° C | 74% | 1012.9 hPa | - | - | - | - |
| 1787786620 | 28.89° C | 74% | 1012.9 hPa | - | - | - | - |
| 1787786016 | 28.89° C | 74% | 1012.9 hPa | - | - | - | - |
| 1787785418 | 28.89° C | 74% | 1012.9 hPa | - | - | - | - |
| 1787784822 | 26.67° C | 74% | 1012.2 hPa | - | - | - | - |
| 1787784218 | 26.67° C | 74% | 1012.2 hPa | - | - | - | - |
| 1787783618 | 26.67° C | 74% | 1012.2 hPa | - | - | - | - |
| 1787783018 | 26.67° C | 74% | 1012.2 hPa | - | - | - | - |
| 1787782416 | 26.67° C | 74% | 1012.2 hPa | - | - | - | - |
| 1787781814 | 26.67° C | 74% | 1012.2 hPa | - | - | - | - |
| 1787781215 | 27.78° C | 69% | 1012.5 hPa | - | - | - | - |
| 1787780617 | 28.89° C | 70% | 1012.9 hPa | - | - | - | - |
| 1787780018 | 28.89° C | 70% | 1012.9 hPa | - | - | - | - |
| 1787779415 | 35.56° C | 44% | 1012.5 hPa | - | - | - | - |
* Rain since midnight (hover to see other rain measurements)
** Current wind speed in m/s (hover to see current wind gust speed)